Time;durP1;ratioP1;P1;durP2;ratioP2;P2;SDS_P1;SDS_P2;PMS_P1;PMS_P2;Temp;Humidity;BMP_temperature;BMP_pressure;BME280_temperature;BME280_humidity;BME280_pressure;Samples;Min_cycle;Max_cycle;Signal;HPM_P1;HPM_P2
2023/01/04 05:20:54;;;;;;;0.60;0.30;;;;;;;;;;5816169;24;20039;-91
2023/01/04 05:40:32;;;;;;;1.30;0.55;;;;;;;;;;5712921;25;20028;-91
2023/01/04 05:52:22;;;;;;;1.17;0.50;;;;;;;;;;5790306;24;20057;-90
2023/01/04 06:04:19;;;;;;;0.82;0.30;;;;;;;;;;5952443;23;20019;-92
2023/01/04 07:16:01;;;;;;;;;;;;;;;;;;;;;
2023/01/04 08:16:57;;;;;;;0.70;0.22;;;;;;;;;;5953680;24;20540;-91
2023/01/04 08:20:49;;;;;;;0.25;0.08;;;;;;;;;;5896939;24;20419;-91
2023/01/04 08:23:47;;;;;;;0.80;0.00;;;;;;;;;;5876385;24;20018;-90
2023/01/04 08:26:23;;;;;;;0.50;0.10;;;;;;;;;;5878415;23;20085;-90
2023/01/04 08:28:57;;;;;;;1.17;0.32;;;;;;;;;;5885467;24;20104;-90
2023/01/04 08:31:45;;;;;;;1.88;0.25;;;;;;;;;;5975487;23;20010;-91
2023/01/04 08:34:21;;;;;;;0.90;0.30;;;;;;;;;;6019877;23;20397;-90
2023/01/04 08:37:27;;;;;;;;;;;;;;;;;;6023598;23;20022;-90
2023/01/04 08:40:26;;;;;;;1.93;0.17;;;;;;;;;;6043414;23;19909;-90
2023/01/04 08:43:08;;;;;;;5.00;0.73;;;;;;;;;;5997767;23;20455;-89
2023/01/04 08:45:40;;;;;;;2.50;0.82;;;;;;;;;;6021279;23;20469;-91
2023/01/04 08:48:17;;;;;;;4.43;1.30;;;;;;;;;;5997395;23;20343;-91
2023/01/04 08:53:46;;;;;;;4.03;1.60;;;;;;;;;;6097324;23;20092;-91
2023/01/04 08:56:35;;;;;;;3.33;1.20;;;;;;;;;;6047852;23;20017;-89
2023/01/04 09:03:40;;;;;;;2.60;0.95;;;;;;;;;;6096964;23;20011;-91
2023/01/04 09:07:02;;;;;;;5.25;0.88;;;;;;;;;;6049175;23;20104;-91
2023/01/04 09:17:29;;;;;;;;;;;;;;;;;;;;;
2023/01/04 11:16:28;;;;;;;9.35;4.70;;;;;;;;;;6095423;23;20074;-92
2023/01/04 11:19:03;;;;;;;10.43;4.85;;;;;;;;;;6047570;23;20010;-91
2023/01/04 11:23:02;;;;;;;;;;;;;;;;;;;;;
2023/01/04 11:26:13;;;;;;;10.40;4.30;;;;;;;;;;5933659;24;20025;-90
2023/01/04 11:29:40;;;;;;;9.95;3.97;;;;;;;;;;5932410;24;20441;-91
2023/01/04 11:33:40;;;;;;;;;;;;;;;;;;;;;
2023/01/04 11:37:18;;;;;;;5.63;3.28;;;;;;;;;;6022452;23;20343;-92
2023/01/04 11:40:30;;;;;;;10.57;4.15;;;;;;;;;;6029488;23;20007;-91
2023/01/04 12:09:55;;;;;;;14.02;6.65;;;;;;;;;;6095386;23;20038;-91
2023/01/04 12:13:34;;;;;;;11.20;4.80;;;;;;;;;;6071692;23;20029;-90
2023/01/04 12:20:29;;;;;;;11.02;4.57;;;;;;;;;;5981357;24;20047;-87
2023/01/04 12:22:59;;;;;;;8.38;4.07;;;;;;;;;;5908208;24;20025;-90
2023/01/04 12:25:55;;;;;;;10.25;4.45;;;;;;;;;;6011737;23;20063;-91
2023/01/04 14:02:38;;;;;;;29.05;12.07;;;;;;;;;;6093090;23;20032;-91
2023/01/04 18:38:24;;;;;;;37.15;28.08;;;;;;;;;;5951682;24;20062;-88
2023/01/04 18:40:56;;;;;;;38.97;27.83;;;;;;;;;;5909977;24;20017;-90
2023/01/04 18:43:23;;;;;;;36.40;25.65;;;;;;;;;;5905437;24;20016;-89
2023/01/04 18:45:55;;;;;;;35.72;26.23;;;;;;;;;;5905821;24;20044;-88
2023/01/04 18:48:28;;;;;;;37.03;25.33;;;;;;;;;;5976630;23;20007;-91
2023/01/04 18:51:14;;;;;;;35.33;25.00;;;;;;;;;;5995839;23;20435;-90
2023/01/04 18:53:55;;;;;;;38.53;24.00;;;;;;;;;;5995971;23;20011;-91
2023/01/04 18:56:33;;;;;;;36.10;23.98;;;;;;;;;;5997691;23;20077;-90
2023/01/04 18:59:35;;;;;;;33.80;23.77;;;;;;;;;;5996090;23;20034;-91
2023/01/04 19:02:31;;;;;;;31.38;22.88;;;;;;;;;;6030748;23;20019;-90
2023/01/04 19:05:23;;;;;;;33.75;23.02;;;;;;;;;;5996874;23;20013;-90
2023/01/04 19:08:35;;;;;;;30.42;20.95;;;;;;;;;;6043821;23;20320;-91
2023/01/04 19:11:44;;;;;;;32.47;20.88;;;;;;;;;;6067720;23;20034;-91
2023/01/04 19:14:36;;;;;;;27.92;19.83;;;;;;;;;;6042852;23;20017;-90
2023/01/04 19:17:26;;;;;;;29.90;20.42;;;;;;;;;;6021079;23;20007;-90
2023/01/04 19:20:02;;;;;;;27.95;19.27;;;;;;;;;;6044632;23;20015;-90
2023/01/04 19:22:33;;;;;;;30.63;18.27;;;;;;;;;;5997622;23;20039;-89
2023/01/04 19:25:01;;;;;;;26.20;18.20;;;;;;;;;;6020717;23;20089;-89
2023/01/04 19:27:34;;;;;;;28.88;17.35;;;;;;;;;;5996584;23;20073;-90
2023/01/04 19:30:01;;;;;;;29.55;18.95;;;;;;;;;;5997288;23;20425;-90
2023/01/04 19:32:28;;;;;;;26.08;18.40;;;;;;;;;;5997397;23;20320;-89
2023/01/04 19:34:54;;;;;;;27.77;17.58;;;;;;;;;;5996893;23;20015;-90
2023/01/04 19:37:23;;;;;;;25.50;16.98;;;;;;;;;;6020613;23;20010;-89
2023/01/04 19:39:49;;;;;;;24.38;15.63;;;;;;;;;;5996308;23;20352;-90
2023/01/04 19:42:16;;;;;;;25.73;16.70;;;;;;;;;;6043750;23;20324;-90
2023/01/04 19:44:44;;;;;;;24.17;16.13;;;;;;;;;;5997181;23;20347;-90
2023/01/04 19:47:22;;;;;;;20.70;14.38;;;;;;;;;;5997343;23;20388;-89
2023/01/04 19:49:58;;;;;;;21.17;14.60;;;;;;;;;;6020881;23;20090;-91
2023/01/04 19:52:29;;;;;;;22.40;14.63;;;;;;;;;;5974749;23;20038;-91
2023/01/04 19:55:03;;;;;;;21.45;14.18;;;;;;;;;;5997660;23;20007;-90
2023/01/04 19:57:30;;;;;;;21.73;13.10;;;;;;;;;;5997375;23;20325;-91
2023/01/04 20:00:04;;;;;;;22.08;12.90;;;;;;;;;;5997405;23;20015;-92
2023/01/04 20:02:34;;;;;;;;;;;;;;;;;;5998392;23;20439;-91
2023/01/04 20:05:16;;;;;;;17.75;12.38;;;;;;;;;;5996879;23;19901;-89
2023/01/04 20:07:48;;;;;;;21.77;13.00;;;;;;;;;;5997099;23;20097;-90
2023/01/04 20:10:19;;;;;;;17.08;11.38;;;;;;;;;;5974244;23;20017;-89
2023/01/04 20:13:13;;;;;;;17.67;11.43;;;;;;;;;;5997293;23;20160;-89
2023/01/04 20:15:41;;;;;;;18.27;11.10;;;;;;;;;;5997312;23;20014;-89
2023/01/04 20:18:12;;;;;;;14.75;10.50;;;;;;;;;;6020775;23;20070;-89
2023/01/04 20:20:46;;;;;;;18.33;10.95;;;;;;;;;;5997353;23;20011;-91
2023/01/04 20:23:20;;;;;;;14.25;9.77;;;;;;;;;;5996459;23;20104;-92
2023/01/04 20:25:51;;;;;;;18.08;10.20;;;;;;;;;;5998786;23;20339;-90
2023/01/04 20:28:24;;;;;;;15.45;9.50;;;;;;;;;;6020498;23;20011;-89
2023/01/04 20:31:26;;;;;;;14.45;9.13;;;;;;;;;;5997331;23;20061;-90
2023/01/04 20:33:56;;;;;;;13.40;9.23;;;;;;;;;;6042596;23;20025;-90
2023/01/04 20:36:28;;;;;;;16.55;9.70;;;;;;;;;;5996475;23;20019;-89
2023/01/04 20:38:57;;;;;;;14.68;9.43;;;;;;;;;;5997384;23;20010;-89
2023/01/04 20:41:31;;;;;;;12.68;8.15;;;;;;;;;;5997466;23;20093;-89
2023/01/04 20:44:01;;;;;;;14.68;8.65;;;;;;;;;;5997383;23;20346;-89
2023/01/04 20:46:31;;;;;;;13.77;8.18;;;;;;;;;;5996790;23;20498;-90
2023/01/04 20:48:59;;;;;;;13.73;8.40;;;;;;;;;;5998199;23;20019;-91
2023/01/04 20:51:30;;;;;;;12.13;7.75;;;;;;;;;;5996288;23;20007;-88
2023/01/04 20:53:59;;;;;;;13.93;8.23;;;;;;;;;;5996656;23;20072;-88
2023/01/04 20:56:36;;;;;;;10.60;7.13;;;;;;;;;;5997355;23;20014;-89
2023/01/04 20:59:06;;;;;;;12.10;7.03;;;;;;;;;;5997801;23;20522;-89
2023/01/04 21:01:36;;;;;;;13.13;6.95;;;;;;;;;;5997483;23;20014;-89
2023/01/04 21:04:04;;;;;;;12.32;6.45;;;;;;;;;;5996879;23;20038;-89
2023/01/04 21:06:37;;;;;;;15.23;7.60;;;;;;;;;;5996860;23;20017;-89
2023/01/04 21:09:09;;;;;;;13.50;7.70;;;;;;;;;;5997469;23;20015;-89
2023/01/04 21:11:42;;;;;;;11.18;6.72;;;;;;;;;;5997202;23;20011;-89
2023/01/04 21:14:12;;;;;;;10.88;6.55;;;;;;;;;;5997006;23;20015;-88
2023/01/04 21:16:40;;;;;;;10.25;6.45;;;;;;;;;;5996967;23;20038;-90
2023/01/04 21:19:09;;;;;;;10.77;6.18;;;;;;;;;;5997652;23;20015;-89
2023/01/04 21:21:40;;;;;;;11.02;6.90;;;;;;;;;;5996605;23;20006;-89
2023/01/04 21:24:14;;;;;;;10.45;5.47;;;;;;;;;;5996711;23;20017;-90
2023/01/04 21:26:46;;;;;;;12.52;6.28;;;;;;;;;;5996733;23;20355;-89
2023/01/04 21:29:16;;;;;;;8.35;5.53;;;;;;;;;;5996569;23;20019;-90
2023/01/04 21:31:46;;;;;;;9.88;5.88;;;;;;;;;;5996256;23;20351;-89
2023/01/04 21:34:21;;;;;;;10.25;5.97;;;;;;;;;;5996241;23;20011;-90
2023/01/04 21:37:01;;;;;;;11.20;6.22;;;;;;;;;;5996657;23;20343;-89
2023/01/04 21:39:31;;;;;;;9.25;5.20;;;;;;;;;;5997800;23;20007;-89
2023/01/04 21:42:11;;;;;;;10.80;5.47;;;;;;;;;;5998025;23;20046;-89
2023/01/04 21:44:41;;;;;;;10.05;5.72;;;;;;;;;;6019880;23;20097;-89
2023/01/04 21:47:11;;;;;;;10.75;5.80;;;;;;;;;;5996754;23;20018;-90
2023/01/04 21:49:49;;;;;;;9.85;6.28;;;;;;;;;;5996567;23;20013;-90
2023/01/04 21:52:21;;;;;;;10.93;5.20;;;;;;;;;;5997350;23;20440;-90
2023/01/04 21:54:59;;;;;;;9.60;5.07;;;;;;;;;;5996195;23;20026;-89
2023/01/04 21:57:28;;;;;;;9.18;4.95;;;;;;;;;;6019855;23;20339;-90
2023/01/04 21:59:59;;;;;;;7.60;4.55;;;;;;;;;;5996440;23;20074;-89
2023/01/04 22:02:30;;;;;;;7.97;4.82;;;;;;;;;;5996096;23;20011;-89
2023/01/04 22:05:03;;;;;;;6.15;3.97;;;;;;;;;;5995827;23;20388;-90
2023/01/04 22:07:35;;;;;;;7.68;4.30;;;;;;;;;;5996354;23;20010;-89
2023/01/04 22:10:07;;;;;;;7.57;4.32;;;;;;;;;;5995852;23;20026;-90
2023/01/04 22:12:46;;;;;;;8.10;4.40;;;;;;;;;;6019852;23;20075;-89
2023/01/04 22:15:21;;;;;;;8.25;4.05;;;;;;;;;;6044891;23;20379;-90
2023/01/04 22:17:55;;;;;;;7.68;3.90;;;;;;;;;;5996550;23;20007;-89
2023/01/04 22:20:25;;;;;;;7.78;4.13;;;;;;;;;;5996520;23;20049;-89
2023/01/04 22:22:55;;;;;;;5.88;3.75;;;;;;;;;;5997252;23;20018;-90
2023/01/04 22:25:31;;;;;;;9.02;4.25;;;;;;;;;;5997735;23;20097;-89
2023/01/04 22:28:12;;;;;;;8.23;3.88;;;;;;;;;;5996310;23;20387;-90
2023/01/04 22:30:44;;;;;;;6.35;3.42;;;;;;;;;;6042683;23;20414;-90
2023/01/04 22:33:28;;;;;;;7.20;3.78;;;;;;;;;;5996941;23;20042;-90
2023/01/04 22:36:15;;;;;;;5.95;3.28;;;;;;;;;;6067564;23;20007;-90
2023/01/04 22:38:45;;;;;;;5.40;3.38;;;;;;;;;;5995806;23;20343;-90
2023/01/04 22:41:17;;;;;;;5.50;3.20;;;;;;;;;;5995583;23;20045;-90
2023/01/04 22:43:46;;;;;;;7.43;3.40;;;;;;;;;;5995687;23;20019;-90
2023/01/04 22:46:18;;;;;;;6.38;2.50;;;;;;;;;;5972397;23;20343;-90
2023/01/04 22:48:47;;;;;;;5.97;3.15;;;;;;;;;;6018012;23;20007;-90
2023/01/04 22:51:19;;;;;;;8.10;3.70;;;;;;;;;;5996383;23;20015;-90
2023/01/04 22:53:49;;;;;;;6.10;3.17;;;;;;;;;;5996205;23;20083;-90
2023/01/04 22:56:18;;;;;;;7.38;3.70;;;;;;;;;;5995732;23;20014;-90
2023/01/04 22:58:49;;;;;;;7.13;3.33;;;;;;;;;;6019766;23;20015;-90
2023/01/04 23:01:19;;;;;;;6.55;3.60;;;;;;;;;;5995867;23;20011;-90
2023/01/04 23:03:59;;;;;;;7.05;2.92;;;;;;;;;;6000215;23;20332;-90
2023/01/04 23:06:32;;;;;;;7.25;2.60;;;;;;;;;;5996162;23;20025;-90
2023/01/04 23:09:08;;;;;;;5.00;2.90;;;;;;;;;;5996213;23;20019;-90
2023/01/04 23:11:43;;;;;;;6.60;2.63;;;;;;;;;;6042446;23;20404;-90
2023/01/04 23:14:20;;;;;;;5.50;2.78;;;;;;;;;;5999097;23;20085;-90
2023/01/04 23:16:49;;;;;;;5.97;2.78;;;;;;;;;;5995789;23;20011;-91
2023/01/04 23:19:19;;;;;;;8.40;2.70;;;;;;;;;;5996839;23;20339;-90
2023/01/04 23:21:48;;;;;;;7.45;3.40;;;;;;;;;;5996399;23;20069;-90
2023/01/04 23:24:19;;;;;;;9.27;3.15;;;;;;;;;;5996058;23;20447;-91
2023/01/04 23:26:50;;;;;;;5.35;2.70;;;;;;;;;;5995991;23;20015;-90
2023/01/04 23:29:21;;;;;;;5.72;2.63;;;;;;;;;;6018899;23;20011;-89
2023/01/04 23:31:54;;;;;;;7.97;2.85;;;;;;;;;;5995381;23;20021;-90
2023/01/04 23:34:29;;;;;;;5.80;2.63;;;;;;;;;;6042363;23;20021;-90
2023/01/04 23:37:03;;;;;;;5.70;2.80;;;;;;;;;;5997065;23;20019;-91
2023/01/04 23:39:36;;;;;;;5.90;2.40;;;;;;;;;;6019586;23;20025;-90
2023/01/04 23:42:12;;;;;;;7.57;2.88;;;;;;;;;;5995937;23;20019;-90
2023/01/04 23:44:43;;;;;;;4.50;2.13;;;;;;;;;;6018092;23;20018;-91
2023/01/04 23:47:21;;;;;;;6.55;2.65;;;;;;;;;;5998149;23;20015;-90
2023/01/04 23:49:54;;;;;;;5.03;2.22;;;;;;;;;;5995692;23;20021;-90
2023/01/04 23:52:25;;;;;;;;;;;;;;;;;;5996964;23;20007;-90
2023/01/04 23:54:56;;;;;;;4.30;2.25;;;;;;;;;;6018495;23;19901;-90
2023/01/04 23:57:27;;;;;;;5.30;2.42;;;;;;;;;;5996488;23;20347;-90
2023/01/04 23:59:59;;;;;;;5.60;2.35;;;;;;;;;;5976400;23;20030;-90
